createdAt,value
2018-09-16T00:00:00.901Z,1.40
2018-09-16T00:01:00.885Z,1.50
2018-09-16T00:02:00.877Z,1.60
2018-09-16T00:03:00.880Z,1.40
2018-09-16T00:04:00.872Z,1.70
2018-09-16T00:05:00.856Z,1.50
2018-09-16T00:06:00.851Z,1.40
2018-09-16T00:07:00.863Z,1.60
2018-09-16T00:08:00.843Z,1.40
2018-09-16T00:09:00.841Z,1.90
2018-09-16T00:10:00.834Z,1.40
2018-09-16T00:11:00.842Z,1.40
2018-09-16T00:12:00.831Z,1.70
2018-09-16T00:13:00.821Z,1.50
2018-09-16T00:14:00.810Z,1.40
2018-09-16T00:15:00.802Z,1.60
2018-09-16T00:16:00.820Z,1.60
2018-09-16T00:17:00.806Z,1.60
2018-09-16T00:18:00.823Z,1.60
2018-09-16T00:19:00.790Z,1.40
2018-09-16T00:20:00.791Z,1.70
2018-09-16T00:21:00.781Z,1.40
2018-09-16T00:22:00.777Z,1.60
2018-09-16T00:23:00.771Z,1.40
2018-09-16T00:24:00.770Z,1.50
2018-09-16T00:25:00.760Z,1.50
2018-09-16T00:26:00.751Z,1.60
2018-09-16T00:27:00.750Z,1.60
2018-09-16T00:28:00.747Z,1.60
2018-09-16T00:29:00.742Z,1.60
2018-09-16T00:30:00.740Z,1.50
2018-09-16T00:31:00.727Z,1.70
2018-09-16T00:32:00.722Z,1.50
2018-09-16T00:33:00.733Z,1.40
2018-09-16T00:34:00.719Z,1.50
2018-09-16T00:35:00.712Z,1.60
2018-09-16T00:36:00.711Z,1.60
2018-09-16T00:37:00.702Z,1.50
2018-09-16T00:38:00.701Z,1.70
2018-09-16T00:39:00.687Z,1.60
2018-09-16T00:40:00.702Z,1.60
2018-09-16T00:41:00.688Z,1.70
2018-09-16T00:42:00.671Z,1.50
2018-09-16T00:43:00.672Z,1.70
2018-09-16T00:44:00.693Z,1.40
2018-09-16T00:45:00.657Z,1.60
2018-09-16T00:46:00.658Z,1.60
2018-09-16T00:47:00.649Z,1.60
2018-09-16T00:48:00.642Z,1.60
2018-09-16T00:49:00.641Z,1.80
2018-09-16T00:50:00.642Z,1.60
2018-09-16T00:51:00.627Z,1.60
2018-09-16T00:52:00.621Z,1.70
2018-09-16T00:53:00.627Z,1.60
2018-09-16T00:54:00.611Z,1.80
2018-09-16T00:55:00.612Z,1.60
2018-09-16T00:56:00.604Z,1.50
2018-09-16T00:57:00.618Z,1.60
2018-09-16T00:58:00.588Z,1.60
2018-09-16T00:59:00.583Z,1.50
2018-09-16T01:00:00.578Z,1.50
2018-09-16T01:01:00.573Z,1.60
2018-09-16T01:02:00.576Z,1.40
2018-09-16T01:03:00.564Z,1.60
2018-09-16T01:04:00.554Z,1.50
2018-09-16T01:05:00.567Z,1.50
2018-09-16T01:06:00.547Z,1.70
2018-09-16T01:07:00.544Z,1.70
2018-09-16T01:08:00.537Z,1.80
2018-09-16T01:09:00.546Z,1.70
2018-09-16T01:10:00.532Z,1.70
2018-09-16T01:11:00.526Z,1.40
2018-09-16T01:12:00.517Z,1.60
2018-09-16T01:13:00.512Z,1.80
2018-09-16T01:14:00.509Z,1.70
2018-09-16T01:15:00.512Z,1.60
2018-09-16T01:16:00.495Z,1.60
2018-09-16T01:17:00.489Z,1.60
2018-09-16T01:18:00.494Z,1.80
2018-09-16T01:19:00.488Z,1.60
2018-09-16T01:20:00.483Z,1.60
2018-09-16T01:21:00.476Z,1.60
2018-09-16T01:22:00.475Z,1.50
2018-09-16T01:23:00.463Z,1.50
2018-09-16T01:24:00.452Z,1.50
2018-09-16T01:25:00.460Z,1.80
2018-09-16T01:26:00.437Z,1.60
2018-09-16T01:27:00.459Z,1.70
2018-09-16T01:28:00.432Z,1.70
2018-09-16T01:29:00.438Z,1.40
2018-09-16T01:30:00.428Z,1.50
2018-09-16T01:31:00.433Z,1.70
2018-09-16T01:32:00.413Z,1.60
2018-09-16T01:33:00.407Z,1.60
2018-09-16T01:34:00.417Z,1.70
2018-09-16T01:35:00.397Z,1.70
2018-09-16T01:36:00.397Z,1.60
2018-09-16T01:37:00.389Z,1.60
2018-09-16T01:38:00.389Z,1.50
2018-09-16T01:39:00.388Z,1.60
2018-09-16T01:40:00.379Z,1.60
2018-09-16T01:41:00.376Z,1.60
2018-09-16T01:42:00.363Z,1.60
2018-09-16T01:43:00.369Z,1.60
2018-09-16T01:44:00.349Z,1.70
2018-09-16T01:45:00.350Z,1.50
2018-09-16T01:46:00.343Z,1.50
2018-09-16T01:47:00.351Z,1.60
2018-09-16T01:48:00.329Z,1.40
2018-09-16T01:49:00.334Z,1.60
2018-09-16T01:50:00.331Z,1.80
2018-09-16T01:51:00.313Z,1.60
2018-09-16T01:52:00.317Z,1.70
2018-09-16T01:53:00.305Z,1.60
2018-09-16T01:54:00.306Z,1.60
2018-09-16T01:55:00.302Z,1.80
2018-09-16T01:56:00.307Z,1.70
2018-09-16T01:57:00.289Z,1.80
2018-09-16T01:58:00.292Z,1.60
2018-09-16T01:59:00.283Z,1.50
2018-09-16T02:00:00.275Z,1.60
2018-09-16T02:01:00.268Z,1.60
2018-09-16T02:02:00.261Z,1.70
2018-09-16T02:03:00.256Z,1.70
2018-09-16T02:04:00.248Z,1.80
2018-09-16T02:05:00.247Z,1.60
2018-09-16T02:06:00.243Z,1.70
2018-09-16T02:07:00.242Z,1.50
2018-09-16T02:08:00.232Z,1.50
2018-09-16T02:09:00.231Z,1.50
2018-09-16T02:10:00.222Z,1.60
2018-09-16T02:11:00.222Z,1.60
2018-09-16T02:12:00.222Z,1.50
2018-09-16T02:13:00.214Z,1.70
2018-09-16T02:14:00.209Z,1.60
2018-09-16T02:15:00.197Z,1.60
2018-09-16T02:16:00.189Z,1.70
2018-09-16T02:17:00.184Z,1.80
2018-09-16T02:18:00.184Z,1.70
2018-09-16T02:19:00.184Z,1.60
2018-09-16T02:20:00.174Z,1.60
2018-09-16T02:21:00.173Z,1.60
2018-09-16T02:22:00.157Z,1.50
2018-09-16T02:23:00.153Z,1.60
2018-09-16T02:24:00.162Z,1.60
2018-09-16T02:25:00.137Z,1.50
2018-09-16T02:26:00.149Z,1.90
2018-09-16T02:27:00.141Z,1.60
2018-09-16T02:28:00.124Z,1.70
2018-09-16T02:29:00.133Z,1.50
2018-09-16T02:30:00.125Z,1.60
2018-09-16T02:31:00.137Z,1.70
2018-09-16T02:32:00.099Z,1.70
2018-09-16T02:33:00.094Z,1.60
2018-09-16T02:34:00.098Z,1.80
2018-09-16T02:35:00.095Z,1.70
2018-09-16T02:36:00.083Z,1.80
2018-09-16T02:37:00.080Z,1.70
2018-09-16T02:38:00.083Z,1.60
2018-09-16T02:39:00.065Z,1.70
2018-09-16T02:40:00.067Z,1.60
2018-09-16T02:41:00.062Z,1.70
2018-09-16T02:42:00.058Z,1.60
2018-09-16T02:43:00.059Z,1.50
2018-09-16T02:44:00.053Z,1.60
2018-09-16T02:45:00.039Z,1.40
2018-09-16T02:46:00.034Z,1.80
2018-09-16T02:47:00.028Z,1.50
2018-09-16T02:48:00.043Z,1.60
2018-09-16T02:49:00.023Z,1.70
2018-09-16T02:50:00.018Z,1.70
2018-09-16T02:51:00.008Z,1.70
2018-09-16T02:52:00.006Z,1.40
2018-09-16T02:53:00.003Z,1.70
2018-09-16T02:54:00.005Z,1.50
2018-09-16T02:54:59.992Z,1.70
2018-09-16T02:55:59.984Z,1.50
2018-09-16T02:56:59.984Z,1.70
2018-09-16T02:57:59.976Z,1.50
2018-09-16T02:58:59.979Z,1.70
2018-09-16T02:59:59.963Z,1.70
2018-09-16T03:00:59.956Z,1.60
2018-09-16T03:01:59.945Z,1.60
2018-09-16T03:02:59.958Z,1.50
2018-09-16T03:03:59.940Z,1.70
2018-09-16T03:04:59.935Z,1.60
2018-09-16T03:05:59.929Z,1.50
2018-09-16T03:06:59.925Z,1.50
2018-09-16T03:07:59.938Z,1.60
2018-09-16T03:08:59.920Z,1.70
2018-09-16T03:09:59.908Z,1.70
2018-09-16T03:10:59.914Z,1.70
2018-09-16T03:11:59.900Z,1.50
2018-09-16T03:12:59.892Z,1.60
2018-09-16T03:13:59.883Z,1.70
2018-09-16T03:14:59.883Z,1.50
2018-09-16T03:15:59.885Z,1.50
2018-09-16T03:16:59.869Z,1.50
2018-09-16T03:17:59.868Z,1.50
2018-09-16T03:18:59.872Z,1.60
2018-09-16T03:19:59.863Z,1.60
2018-09-16T03:20:59.848Z,1.60
2018-09-16T03:21:59.849Z,1.70
2018-09-16T03:22:59.838Z,1.50
2018-09-16T03:23:59.845Z,1.50
2018-09-16T03:24:59.834Z,1.60
2018-09-16T03:25:59.824Z,1.50
2018-09-16T03:26:59.820Z,1.80
2018-09-16T03:27:59.816Z,1.40
2018-09-16T03:28:59.823Z,1.70
2018-09-16T03:29:59.805Z,1.70
2018-09-16T03:30:59.799Z,1.60
2018-09-16T03:31:59.798Z,1.70
2018-09-16T03:32:59.790Z,1.70
2018-09-16T03:33:59.810Z,1.60
2018-09-16T03:34:59.775Z,1.30
2018-09-16T03:35:59.780Z,1.50
2018-09-16T03:36:59.778Z,1.60
2018-09-16T03:37:59.770Z,1.60
2018-09-16T03:38:59.764Z,1.70
2018-09-16T03:39:59.749Z,1.70
2018-09-16T03:40:59.746Z,1.40
2018-09-16T03:41:59.750Z,1.50
2018-09-16T03:42:59.741Z,1.50
2018-09-16T03:43:59.771Z,1.50
2018-09-16T03:44:59.734Z,1.60
2018-09-16T03:45:59.716Z,1.70
2018-09-16T03:46:59.724Z,1.60
2018-09-16T03:47:59.717Z,1.40
2018-09-16T03:48:59.708Z,1.60
2018-09-16T03:49:59.714Z,1.60
2018-09-16T03:50:59.815Z,1.60
2018-09-16T03:51:59.696Z,1.40
2018-09-16T03:52:59.690Z,1.60
2018-09-16T03:53:59.678Z,1.50
2018-09-16T03:54:59.680Z,1.60
2018-09-16T03:55:59.665Z,1.40
2018-09-16T03:56:59.674Z,1.50
2018-09-16T03:57:59.666Z,1.40
2018-09-16T03:58:59.660Z,1.60
2018-09-16T03:59:59.652Z,1.60
2018-09-16T04:00:59.655Z,1.60
2018-09-16T04:01:59.641Z,1.50
2018-09-16T04:02:59.659Z,1.50
2018-09-16T04:03:59.629Z,1.40
2018-09-16T04:04:59.624Z,1.50
2018-09-16T04:05:59.625Z,1.50
2018-09-16T04:06:59.626Z,1.50
2018-09-16T04:07:59.611Z,1.40
2018-09-16T04:08:59.616Z,1.50
2018-09-16T04:09:59.601Z,1.60
2018-09-16T04:10:59.600Z,1.60
2018-09-16T04:11:59.606Z,1.50
2018-09-16T04:12:59.585Z,1.50
2018-09-16T04:13:59.647Z,1.50
2018-09-16T04:14:59.576Z,1.40
2018-09-16T04:15:59.567Z,1.60
2018-09-16T04:16:59.578Z,1.40
2018-09-16T04:17:59.562Z,1.60
2018-09-16T04:18:59.546Z,1.30
2018-09-16T04:19:59.551Z,1.50
2018-09-16T04:20:59.618Z,1.60
2018-09-16T04:21:59.543Z,1.40
2018-09-16T04:22:59.532Z,1.60
2018-09-16T04:23:59.532Z,1.70
2018-09-16T04:24:59.523Z,1.40
2018-09-16T04:25:59.514Z,1.50
2018-09-16T04:26:59.520Z,1.70
2018-09-16T04:27:59.515Z,1.50
2018-09-16T04:28:59.500Z,1.30
2018-09-16T04:29:59.505Z,1.70
2018-09-16T04:30:59.495Z,1.50
2018-09-16T04:31:59.487Z,1.50
2018-09-16T04:32:59.485Z,1.60
2018-09-16T04:33:59.476Z,1.60
2018-09-16T04:34:59.474Z,1.60
2018-09-16T04:35:59.461Z,1.60
2018-09-16T04:36:59.465Z,1.50
2018-09-16T04:37:59.451Z,1.50
2018-09-16T04:38:59.455Z,1.60
2018-09-16T04:39:59.445Z,1.50
2018-09-16T04:40:59.443Z,1.50
2018-09-16T04:41:59.437Z,1.40
2018-09-16T04:42:59.429Z,1.60
2018-09-16T04:43:59.427Z,1.50
2018-09-16T04:44:59.454Z,1.60
2018-09-16T04:45:59.407Z,1.50
2018-09-16T04:46:59.405Z,1.50
2018-09-16T04:47:59.401Z,1.40
2018-09-16T04:48:59.408Z,1.40
2018-09-16T04:49:59.474Z,1.40
2018-09-16T04:50:59.376Z,1.50
2018-09-16T04:51:59.389Z,1.50
2018-09-16T04:52:59.380Z,1.40
2018-09-16T04:53:59.375Z,1.50
2018-09-16T04:54:59.361Z,1.40
2018-09-16T04:55:59.352Z,1.70
2018-09-16T04:56:59.360Z,1.50
2018-09-16T04:57:59.364Z,1.60
2018-09-16T04:58:59.339Z,1.50
2018-09-16T04:59:59.347Z,1.50
2018-09-16T05:00:59.358Z,1.40
2018-09-16T05:01:59.324Z,1.50
2018-09-16T05:02:59.323Z,1.30
2018-09-16T05:03:59.320Z,1.50
2018-09-16T05:04:59.321Z,1.60
2018-09-16T05:05:59.306Z,1.50
2018-09-16T05:06:59.307Z,1.60
2018-09-16T05:07:59.301Z,1.50
2018-09-16T05:08:59.310Z,1.40
2018-09-16T05:09:59.285Z,1.50
2018-09-16T05:10:59.281Z,1.70
2018-09-16T05:11:59.270Z,1.50
2018-09-16T05:12:59.263Z,1.50
2018-09-16T05:13:59.267Z,1.50
2018-09-16T05:14:59.257Z,1.30
2018-09-16T05:15:59.251Z,1.50
2018-09-16T05:16:59.252Z,1.50
2018-09-16T05:17:59.245Z,1.50
2018-09-16T05:18:59.236Z,1.50
2018-09-16T05:19:59.240Z,1.20
2018-09-16T05:20:59.225Z,1.50
2018-09-16T05:21:59.221Z,1.30
2018-09-16T05:22:59.212Z,1.50
2018-09-16T05:23:59.212Z,1.50
2018-09-16T05:24:59.208Z,1.40
2018-09-16T05:25:59.200Z,1.40
2018-09-16T05:26:59.198Z,1.40
2018-09-16T05:27:59.195Z,1.50
2018-09-16T05:28:59.189Z,1.40
2018-09-16T05:29:59.176Z,1.60
2018-09-16T05:30:59.177Z,1.50
2018-09-16T05:31:59.171Z,1.40
2018-09-16T05:32:59.170Z,1.50
2018-09-16T05:33:59.162Z,1.50
2018-09-16T05:34:59.156Z,1.60
2018-09-16T05:35:59.141Z,1.40
2018-09-16T05:36:59.153Z,1.50
2018-09-16T05:37:59.135Z,1.50
2018-09-16T05:38:59.145Z,1.60
2018-09-16T05:39:59.120Z,1.50
2018-09-16T05:40:59.154Z,1.60
2018-09-16T05:41:59.116Z,1.50
2018-09-16T05:42:59.116Z,1.40
2018-09-16T05:43:59.111Z,1.50
2018-09-16T05:44:59.101Z,1.40
2018-09-16T05:45:59.109Z,1.60
2018-09-16T05:46:59.093Z,1.50
2018-09-16T05:47:59.078Z,1.50
2018-09-16T05:48:59.080Z,1.50
2018-09-16T05:49:59.075Z,1.40
2018-09-16T05:50:59.068Z,1.50
2018-09-16T05:51:59.061Z,1.30
2018-09-16T05:52:59.149Z,1.50
2018-09-16T05:53:59.056Z,1.40
2018-09-16T05:54:59.057Z,1.40
2018-09-16T05:55:59.035Z,1.50
2018-09-16T05:56:59.037Z,1.50
2018-09-16T05:57:59.032Z,1.30
2018-09-16T05:58:59.031Z,1.40
2018-09-16T05:59:59.026Z,1.50
2018-09-16T06:00:59.014Z,1.50
2018-09-16T06:01:59.027Z,1.50
2018-09-16T06:02:59.003Z,1.40
2018-09-16T06:03:59.005Z,1.50
2018-09-16T06:04:59.000Z,1.40
2018-09-16T06:05:58.993Z,1.50
2018-09-16T06:06:58.996Z,1.30
2018-09-16T06:07:58.977Z,1.50
2018-09-16T06:08:58.982Z,1.50
2018-09-16T06:09:58.966Z,1.40
2018-09-16T06:10:59.034Z,1.50
2018-09-16T06:11:58.993Z,1.20
2018-09-16T06:12:58.953Z,1.60
2018-09-16T06:13:58.953Z,1.50
2018-09-16T06:14:58.943Z,1.40
2018-09-16T06:15:58.946Z,1.50
2018-09-16T06:16:58.945Z,1.40
2018-09-16T06:17:58.931Z,1.30
2018-09-16T06:18:58.927Z,1.40
2018-09-16T06:19:58.938Z,1.50
2018-09-16T06:20:58.912Z,1.40
2018-09-16T06:21:58.914Z,1.60
2018-09-16T06:22:58.921Z,1.40
2018-09-16T06:23:58.891Z,1.40
2018-09-16T06:24:58.894Z,1.40
2018-09-16T06:25:58.891Z,1.60
2018-09-16T06:26:58.893Z,1.50
2018-09-16T06:27:58.891Z,1.40
2018-09-16T06:28:58.876Z,1.30
2018-09-16T06:29:58.861Z,1.30
2018-09-16T06:30:58.862Z,1.40
2018-09-16T06:31:58.859Z,1.40
2018-09-16T06:32:58.849Z,1.40
2018-09-16T06:33:58.846Z,1.30
2018-09-16T06:34:58.853Z,1.30
2018-09-16T06:35:58.832Z,1.40
2018-09-16T06:36:58.836Z,1.30
2018-09-16T06:37:58.832Z,1.40
2018-09-16T06:38:58.822Z,1.50
2018-09-16T06:39:58.813Z,1.40
2018-09-16T06:40:58.804Z,1.50
2018-09-16T06:41:58.801Z,1.50
2018-09-16T06:42:58.801Z,1.40
2018-09-16T06:43:58.792Z,1.60
2018-09-16T06:44:58.782Z,1.50
2018-09-16T06:45:58.782Z,1.60
2018-09-16T06:46:58.780Z,1.40
2018-09-16T06:47:58.782Z,1.60
2018-09-16T06:48:58.771Z,1.60
2018-09-16T06:49:58.762Z,1.60
2018-09-16T06:50:58.809Z,1.70
2018-09-16T06:51:58.751Z,1.60
2018-09-16T06:52:58.762Z,1.50
2018-09-16T06:53:58.749Z,1.60
2018-09-16T06:54:58.732Z,1.60
2018-09-16T06:55:58.727Z,1.60
2018-09-16T06:56:58.744Z,1.50
2018-09-16T06:57:58.712Z,1.50
2018-09-16T06:58:58.726Z,1.30
2018-09-16T06:59:58.718Z,1.60
2018-09-16T07:00:58.707Z,1.50
2018-09-16T07:01:58.718Z,1.40
2018-09-16T07:02:58.697Z,1.50
2018-09-16T07:03:58.693Z,1.50
2018-09-16T07:04:58.697Z,1.60
2018-09-16T07:05:58.689Z,1.60
2018-09-16T07:06:58.673Z,1.50
2018-09-16T07:07:58.669Z,1.30
2018-09-16T07:08:58.670Z,1.70
2018-09-16T07:09:58.667Z,1.40
2018-09-16T07:10:58.661Z,1.50
2018-09-16T07:11:58.654Z,1.60
2018-09-16T07:12:58.660Z,1.50
2018-09-16T07:13:58.648Z,1.50
2018-09-16T07:14:58.647Z,1.40
2018-09-16T07:15:58.636Z,1.50
2018-09-16T07:16:58.635Z,1.50
2018-09-16T07:17:58.623Z,1.50
2018-09-16T07:18:58.612Z,1.40
2018-09-16T07:19:58.629Z,1.50
2018-09-16T07:20:58.599Z,1.40
2018-09-16T07:21:58.608Z,1.50
2018-09-16T07:22:58.606Z,1.50
2018-09-16T07:23:58.595Z,1.40
2018-09-16T07:24:58.590Z,1.40
2018-09-16T07:25:58.594Z,1.50
2018-09-16T07:26:58.581Z,1.50
2018-09-16T07:27:58.587Z,1.40
2018-09-16T07:28:58.569Z,1.30
2018-09-16T07:29:58.570Z,1.40
2018-09-16T07:30:58.567Z,1.20
2018-09-16T07:31:58.554Z,1.40
2018-09-16T07:32:58.555Z,1.30
2018-09-16T07:33:58.596Z,1.30
2018-09-16T07:34:58.548Z,1.20
2018-09-16T07:35:58.560Z,1.50
2018-09-16T07:36:58.532Z,1.40
2018-09-16T07:37:58.525Z,1.30
2018-09-16T07:38:58.527Z,1.40
2018-09-16T07:39:58.515Z,1.40
2018-09-16T07:40:58.524Z,1.60
2018-09-16T07:41:58.514Z,1.30
2018-09-16T07:42:58.500Z,1.50
2018-09-16T07:43:58.499Z,1.40
2018-09-16T07:44:58.497Z,1.30
2018-09-16T07:45:58.500Z,1.30
2018-09-16T07:46:58.476Z,1.30
2018-09-16T07:47:58.487Z,1.40
2018-09-16T07:48:58.470Z,1.50
2018-09-16T07:49:58.474Z,1.30
2018-09-16T07:50:58.473Z,1.30
2018-09-16T07:51:58.465Z,1.40
2018-09-16T07:52:58.540Z,1.40
2018-09-16T07:53:58.475Z,1.40
2018-09-16T07:54:58.450Z,1.40
2018-09-16T07:55:58.445Z,1.30
2018-09-16T07:56:58.444Z,1.40
2018-09-16T07:57:58.445Z,1.40
2018-09-16T07:58:58.434Z,1.30
2018-09-16T07:59:58.430Z,1.20
2018-09-16T08:00:58.424Z,1.60
2018-09-16T08:01:58.426Z,1.20
2018-09-16T08:02:58.411Z,1.50
2018-09-16T08:03:58.415Z,1.40
2018-09-16T08:04:58.424Z,1.30
2018-09-16T08:05:58.454Z,1.40
2018-09-16T08:06:58.408Z,1.40
2018-09-16T08:07:58.397Z,1.40
2018-09-16T08:08:58.391Z,1.30
2018-09-16T08:09:58.380Z,1.30
2018-09-16T08:10:58.386Z,1.30
2018-09-16T08:11:58.376Z,1.40
2018-09-16T08:12:58.371Z,1.30
2018-09-16T08:13:58.381Z,1.30
2018-09-16T08:14:58.361Z,1.40
2018-09-16T08:15:58.356Z,1.20
2018-09-16T08:16:58.379Z,1.30
2018-09-16T08:17:58.350Z,1.30
2018-09-16T08:18:58.341Z,1.20
2018-09-16T08:19:58.354Z,1.20
2018-09-16T08:20:58.422Z,1.20
2018-09-16T08:21:58.321Z,1.30
2018-09-16T08:22:58.328Z,1.30
2018-09-16T08:23:58.320Z,1.40
2018-09-16T08:24:58.320Z,1.20
2018-09-16T08:25:58.309Z,1.30
2018-09-16T08:26:58.316Z,1.20
2018-09-16T08:27:58.306Z,1.30
2018-09-16T08:28:58.304Z,1.40
2018-09-16T08:29:58.289Z,1.40
2018-09-16T08:30:58.282Z,1.40
2018-09-16T08:31:58.280Z,1.40
2018-09-16T08:32:58.270Z,1.30
2018-09-16T08:33:58.280Z,1.40
2018-09-16T08:34:58.280Z,1.30
2018-09-16T08:35:58.274Z,1.30
2018-09-16T08:36:58.269Z,1.30
2018-09-16T08:37:58.299Z,1.20
2018-09-16T08:38:58.255Z,1.40
2018-09-16T08:39:58.269Z,1.10
2018-09-16T08:40:58.242Z,1.30
2018-09-16T08:41:58.234Z,1.30
2018-09-16T08:42:58.244Z,1.30
2018-09-16T08:43:58.231Z,1.30
2018-09-16T08:44:58.222Z,1.20
2018-09-16T08:45:58.240Z,1.50
2018-09-16T08:46:58.220Z,1.30
2018-09-16T08:47:58.214Z,1.30
2018-09-16T08:48:58.198Z,1.30
2018-09-16T08:49:58.209Z,1.40
2018-09-16T08:50:58.200Z,1.30
2018-09-16T08:51:58.196Z,1.30
2018-09-16T08:52:58.191Z,1.40
2018-09-16T08:53:58.191Z,1.20
2018-09-16T08:54:58.215Z,1.40
2018-09-16T08:55:58.184Z,1.20
2018-09-16T08:56:58.177Z,1.40
2018-09-16T08:57:58.202Z,1.20
2018-09-16T08:58:58.164Z,1.60
2018-09-16T08:59:58.156Z,1.50
2018-09-16T09:00:58.172Z,1.40
2018-09-16T09:01:58.150Z,1.30
2018-09-16T09:02:58.147Z,1.30
2018-09-16T09:03:58.165Z,1.40
2018-09-16T09:04:58.160Z,1.40
2018-09-16T09:05:58.130Z,1.20
2018-09-16T09:06:58.128Z,1.10
2018-09-16T09:07:58.110Z,1.30
2018-09-16T09:08:58.139Z,1.30
2018-09-16T09:09:58.127Z,1.30
2018-09-16T09:10:58.122Z,1.30
2018-09-16T09:11:58.105Z,1.40
2018-09-16T09:12:58.100Z,1.20
2018-09-16T09:13:58.107Z,1.30
2018-09-16T09:14:58.091Z,1.30
2018-09-16T09:15:58.095Z,1.20
2018-09-16T09:16:58.095Z,1.30
2018-09-16T09:17:58.075Z,1.40
2018-09-16T09:18:58.071Z,1.30
2018-09-16T09:19:58.072Z,1.40
2018-09-16T09:20:58.052Z,1.20
2018-09-16T09:21:58.056Z,1.30
2018-09-16T09:22:58.062Z,1.20
2018-09-16T09:23:58.055Z,1.10
2018-09-16T09:24:58.047Z,1.20
2018-09-16T09:25:58.074Z,1.30
2018-09-16T09:26:58.040Z,1.20
2018-09-16T09:27:58.020Z,1.30
2018-09-16T09:28:58.053Z,1.10
2018-09-16T09:29:58.034Z,1.30
2018-09-16T09:30:58.012Z,1.30
2018-09-16T09:31:58.041Z,1.50
2018-09-16T09:32:58.027Z,1.60
2018-09-16T09:33:58.002Z,1.30
2018-09-16T09:34:57.996Z,1.40
2018-09-16T09:35:58.000Z,1.20
2018-09-16T09:36:57.990Z,1.40
2018-09-16T09:37:58.020Z,1.20
2018-09-16T09:38:57.997Z,1.30
2018-09-16T09:39:57.982Z,1.30
2018-09-16T09:40:57.971Z,1.40
2018-09-16T09:41:57.970Z,1.30
2018-09-16T09:42:57.985Z,1.20
2018-09-16T09:43:57.970Z,1.30
2018-09-16T09:44:57.966Z,1.40
2018-09-16T09:45:57.954Z,1.30
2018-09-16T09:46:57.958Z,1.40
2018-09-16T09:47:57.945Z,1.20
2018-09-16T09:48:57.927Z,1.20
2018-09-16T09:49:57.931Z,1.30
2018-09-16T09:50:57.931Z,1.20
2018-09-16T09:51:57.923Z,1.20
2018-09-16T09:52:57.926Z,1.40
2018-09-16T09:53:57.930Z,1.60
2018-09-16T09:54:57.920Z,1.40
2018-09-16T09:55:57.902Z,1.30
2018-09-16T09:56:57.907Z,1.30
2018-09-16T09:57:57.899Z,1.30
2018-09-16T09:58:57.975Z,1.40
2018-09-16T09:59:57.882Z,1.20
2018-09-16T10:00:57.881Z,1.40
2018-09-16T10:01:57.896Z,1.40
2018-09-16T10:02:57.880Z,1.40
2018-09-16T10:03:57.877Z,1.20
2018-09-16T10:04:57.861Z,1.40
2018-09-16T10:05:57.892Z,1.20
2018-09-16T10:06:57.867Z,1.20
2018-09-16T10:07:57.842Z,1.20
2018-09-16T10:08:57.858Z,1.20
2018-09-16T10:09:57.860Z,1.30
2018-09-16T10:10:57.852Z,1.30
2018-09-16T10:11:57.826Z,1.30
2018-09-16T10:12:57.833Z,1.20
2018-09-16T10:13:57.827Z,1.20
2018-09-16T10:14:57.836Z,1.40
2018-09-16T10:15:57.821Z,1.10
2018-09-16T10:16:57.822Z,1.30
2018-09-16T10:17:57.815Z,1.30
2018-09-16T10:18:57.820Z,1.20
2018-09-16T10:19:57.799Z,1.30
2018-09-16T10:20:57.792Z,1.40
2018-09-16T10:21:57.798Z,1.40
2018-09-16T10:22:57.787Z,1.30
2018-09-16T10:23:57.785Z,1.30
2018-09-16T10:24:57.782Z,1.30
2018-09-16T10:25:57.760Z,1.20
2018-09-16T10:26:57.772Z,1.20
2018-09-16T10:27:57.762Z,1.20
2018-09-16T10:28:57.760Z,1.30
2018-09-16T10:29:57.770Z,1.20
2018-09-16T10:30:57.753Z,1.20
2018-09-16T10:31:57.763Z,1.30
2018-09-16T10:32:57.737Z,1.20
2018-09-16T10:33:57.741Z,1.30
2018-09-16T10:34:57.740Z,1.20
2018-09-16T10:35:57.731Z,1.30
2018-09-16T10:36:57.739Z,1.40
2018-09-16T10:37:57.712Z,1.60
2018-09-16T10:38:57.769Z,1.70
2018-09-16T10:39:57.720Z,1.40
2018-09-16T10:40:57.720Z,1.80
2018-09-16T10:41:57.702Z,1.70
2018-09-16T10:42:57.696Z,1.70
2018-09-16T10:43:57.695Z,1.60
2018-09-16T10:44:57.684Z,1.60
2018-09-16T10:45:57.687Z,1.60
2018-09-16T10:46:57.676Z,1.70
2018-09-16T10:47:57.697Z,1.50
2018-09-16T10:48:57.672Z,1.50
2018-09-16T10:49:57.672Z,1.50
2018-09-16T10:50:57.658Z,1.70
2018-09-16T10:51:57.679Z,1.50
2018-09-16T10:52:57.671Z,1.90
2018-09-16T10:53:57.653Z,1.70
2018-09-16T10:54:57.637Z,1.30
2018-09-16T10:55:57.634Z,1.60
2018-09-16T10:56:57.647Z,1.30
2018-09-16T10:57:57.636Z,1.50
2018-09-16T10:58:57.646Z,1.60
2018-09-16T10:59:57.621Z,1.40
2018-09-16T11:00:57.609Z,1.60
2018-09-16T11:01:57.634Z,1.60
2018-09-16T11:02:57.618Z,1.70
2018-09-16T11:03:57.608Z,1.70
2018-09-16T11:04:57.596Z,1.60
2018-09-16T11:05:57.598Z,1.40
2018-09-16T11:06:57.586Z,1.20
2018-09-16T11:07:57.664Z,1.40
2018-09-16T11:08:57.578Z,1.40
2018-09-16T11:09:57.567Z,1.40
2018-09-16T11:10:57.575Z,1.50
2018-09-16T11:11:57.591Z,1.50
2018-09-16T11:12:57.560Z,1.50
2018-09-16T11:13:57.551Z,1.80
2018-09-16T11:14:57.567Z,1.30
2018-09-16T11:15:57.548Z,1.40
2018-09-16T11:16:57.544Z,1.40
2018-09-16T11:17:57.553Z,1.60
2018-09-16T11:18:57.529Z,1.40
2018-09-16T11:19:57.526Z,1.50
2018-09-16T11:20:57.523Z,1.30
2018-09-16T11:21:57.578Z,1.70
2018-09-16T11:22:57.523Z,2.00
2018-09-16T11:23:57.529Z,1.80
2018-09-16T11:24:57.508Z,1.80
2018-09-16T11:25:57.503Z,1.80
2018-09-16T11:26:57.497Z,1.60
2018-09-16T11:27:57.488Z,1.70
2018-09-16T11:28:57.487Z,1.50
2018-09-16T11:29:57.524Z,1.70
2018-09-16T11:30:57.493Z,1.50
2018-09-16T11:31:57.492Z,1.60
2018-09-16T11:32:57.481Z,1.60
2018-09-16T11:33:57.486Z,1.50
2018-09-16T11:34:57.456Z,1.60
2018-09-16T11:35:57.461Z,1.70
2018-09-16T11:36:57.452Z,1.60
2018-09-16T11:37:57.448Z,1.60
2018-09-16T11:38:57.436Z,2.00
2018-09-16T11:39:57.457Z,1.30
2018-09-16T11:40:57.432Z,1.70
2018-09-16T11:41:57.447Z,1.60
2018-09-16T11:42:57.422Z,1.60
2018-09-16T11:43:57.442Z,1.60
2018-09-16T11:44:57.432Z,1.60
2018-09-16T11:45:57.420Z,1.40
2018-09-16T11:46:57.423Z,1.30
2018-09-16T11:47:57.411Z,1.60
2018-09-16T11:48:57.400Z,1.60
2018-09-16T11:49:57.417Z,1.50
2018-09-16T11:50:57.401Z,1.70
2018-09-16T11:51:57.393Z,1.60
2018-09-16T11:52:57.416Z,1.60
2018-09-16T11:53:57.397Z,1.70
2018-09-16T11:54:57.378Z,1.70
2018-09-16T11:55:57.367Z,1.80
2018-09-16T11:56:57.365Z,1.70
2018-09-16T11:57:57.361Z,1.60
2018-09-16T11:58:57.372Z,1.80
2018-09-16T11:59:57.357Z,1.60
2018-09-16T12:00:57.348Z,1.70
2018-09-16T12:01:57.370Z,1.70
2018-09-16T12:02:57.339Z,1.70
2018-09-16T12:03:57.333Z,1.80
2018-09-16T12:04:57.332Z,2.00
2018-09-16T12:05:57.322Z,1.80
2018-09-16T12:06:57.318Z,2.10
2018-09-16T12:07:57.329Z,2.20
2018-09-16T12:08:57.314Z,2.20
2018-09-16T12:09:57.313Z,2.10
2018-09-16T12:10:57.312Z,2.00
2018-09-16T12:11:57.297Z,2.00
2018-09-16T12:12:57.312Z,1.90
2018-09-16T12:13:57.309Z,2.10
2018-09-16T12:14:57.292Z,2.20
2018-09-16T12:15:57.287Z,2.20
2018-09-16T12:16:57.269Z,2.30
2018-09-16T12:17:57.275Z,2.00
2018-09-16T12:18:57.295Z,2.40
2018-09-16T12:19:57.274Z,2.10
2018-09-16T12:20:57.268Z,2.00
2018-09-16T12:21:57.258Z,2.10
2018-09-16T12:22:57.254Z,2.20
2018-09-16T12:23:57.244Z,2.20
2018-09-16T12:24:57.242Z,2.40
2018-09-16T12:25:57.237Z,2.10
2018-09-16T12:26:57.265Z,2.10
2018-09-16T12:27:57.235Z,2.20
2018-09-16T12:28:57.232Z,2.00
2018-09-16T12:29:57.267Z,2.10
2018-09-16T12:30:57.239Z,2.00
2018-09-16T12:31:57.239Z,2.10
2018-09-16T12:32:57.198Z,1.90
2018-09-16T12:33:57.203Z,1.70
2018-09-16T12:34:57.205Z,2.00
2018-09-16T12:35:57.194Z,2.30
2018-09-16T12:36:57.204Z,2.30
2018-09-16T12:37:57.202Z,2.10
2018-09-16T12:38:57.185Z,2.10
2018-09-16T12:39:57.178Z,2.10
2018-09-16T12:40:57.169Z,2.10
2018-09-16T12:41:57.168Z,2.30
2018-09-16T12:42:57.174Z,2.20
2018-09-16T12:43:57.166Z,1.70
2018-09-16T12:44:57.158Z,2.00
2018-09-16T12:45:57.150Z,2.00
2018-09-16T12:46:57.173Z,2.10
2018-09-16T12:47:57.166Z,2.30
2018-09-16T12:48:57.143Z,2.00
2018-09-16T12:49:57.135Z,2.00
2018-09-16T12:50:57.133Z,1.80
2018-09-16T12:51:57.141Z,1.80
2018-09-16T12:52:57.123Z,2.00
2018-09-16T12:53:57.110Z,2.20
2018-09-16T12:54:57.119Z,1.90
2018-09-16T12:55:57.113Z,1.80
2018-09-16T12:56:57.108Z,2.00
2018-09-16T12:57:57.097Z,2.10
2018-09-16T12:58:57.101Z,2.00
2018-09-16T12:59:57.108Z,2.10
2018-09-16T13:00:57.082Z,2.00
2018-09-16T13:01:57.085Z,2.10
2018-09-16T13:02:57.069Z,2.10
2018-09-16T13:03:57.093Z,2.20
2018-09-16T13:04:57.074Z,2.10
2018-09-16T13:05:57.065Z,2.20
2018-09-16T13:06:57.084Z,2.20
2018-09-16T13:07:57.054Z,2.40
2018-09-16T13:08:57.065Z,2.10
2018-09-16T13:09:57.064Z,2.10
2018-09-16T13:10:57.068Z,2.10
2018-09-16T13:11:57.063Z,2.30
2018-09-16T13:12:57.039Z,2.20
2018-09-16T13:13:57.073Z,2.10
2018-09-16T13:14:57.046Z,2.10
2018-09-16T13:15:57.034Z,2.30
2018-09-16T13:16:57.020Z,1.90
2018-09-16T13:17:57.015Z,2.00